METAR Data
IDs: Format: Raw Decoded Include TAF

Data at: 0640 UTC 24 Jan 2019

METAR for:KZZV (Zanesville Muni, OH, US)
Text:KZZV 240609Z AUTO 30008KT 5SM -RA BR BKN006 OVC014 05/04 A2962 RMK AO2 P0002 T00500039
Temperature: 5.0°C ( 41°F)
Dewpoint: 3.9°C ( 39°F) [RH = 93%]
Pressure (altimeter):29.62 inches Hg (1003.1 mb)
Winds:from the WNW (300 degrees) at 9 MPH (8 knots; 4.1 m/s)
Visibility: 5 sm ( 8 km)
Ceiling:600 feet AGL
Clouds: broken clouds at 600 feet AGL, overcast cloud deck at 1400 feet AGL
Weather:-RA BR (light rain, mist)
QC Flag:automated observation with no human augmentation